Time;durP1;ratioP1;P1;durP2;ratioP2;P2;SDS_P1;SDS_P2;PMS_P1;PMS_P2;Temp;Humidity;BMP_temperature;BMP_pressure;BME280_temperature;BME280_humidity;BME280_pressure;Samples;Min_cycle;Max_cycle;Signal;HPM_P1;HPM_P2
2021/12/21 00:01:21;;;;;;;4.22;2.40;;;21.90;50.20;;;;;;4993812;28;20196;-70
2021/12/21 00:03:46;;;;;;;3.15;2.50;;;21.90;50.10;;;;;;4976462;28;20195;-70
2021/12/21 00:06:12;;;;;;;3.13;2.83;;;21.90;49.90;;;;;;4960510;28;20303;-70
2021/12/21 00:08:38;;;;;;;4.78;2.90;;;21.90;49.90;;;;;;4992758;28;20181;-70
2021/12/21 00:11:04;;;;;;;3.72;2.80;;;21.90;49.90;;;;;;4992686;28;20212;-70
2021/12/21 00:18:38;;;;;;;2.88;2.45;;;21.80;49.60;;;;;;4993432;28;20629;-70
2021/12/21 00:21:19;;;;;;;3.55;3.08;;;21.90;49.60;;;;;;4959855;28;20319;-70
2021/12/21 00:23:48;;;;;;;3.45;2.35;;;21.80;49.60;;;;;;4978217;28;20198;-70
2021/12/21 00:26:19;;;;;;;3.15;2.90;;;21.80;49.90;;;;;;4960174;28;20314;-70
2021/12/21 00:31:13;;;;;;;3.50;2.60;;;21.90;49.90;;;;;;4993278;28;20271;-70
2021/12/21 00:33:41;;;;;;;2.92;2.58;;;21.80;49.90;;;;;;4992315;28;20193;-70
2021/12/21 00:36:08;;;;;;;2.78;2.42;;;21.90;49.90;;;;;;4991943;28;20580;-69
2021/12/21 00:38:35;;;;;;;3.25;2.80;;;21.90;49.90;;;;;;4975846;28;20756;-70
2021/12/21 00:41:01;;;;;;;3.35;2.60;;;21.90;49.60;;;;;;4976129;28;20220;-71
2021/12/21 00:43:27;;;;;;;2.60;2.40;;;21.90;49.60;;;;;;4959743;28;20200;-70
2021/12/21 00:45:53;;;;;;;3.45;2.60;;;21.80;49.60;;;;;;4959455;28;20217;-70
2021/12/21 00:48:19;;;;;;;2.50;2.30;;;21.80;49.50;;;;;;4959663;28;20191;-70
2021/12/21 00:50:44;;;;;;;4.60;3.00;;;21.80;49.40;;;;;;4975734;28;20236;-70
2021/12/21 00:53:12;;;;;;;3.53;2.63;;;21.80;49.50;;;;;;4975919;28;20322;-70
2021/12/21 00:55:38;;;;;;;2.78;2.40;;;21.80;49.20;;;;;;4993378;28;20254;-70
2021/12/21 00:58:04;;;;;;;2.97;2.30;;;21.80;49.20;;;;;;4975279;28;20638;-70
2021/12/21 01:00:30;;;;;;;3.50;2.75;;;21.80;49.20;;;;;;4975505;28;20236;-71
2021/12/21 01:03:00;;;;;;;2.65;2.45;;;21.80;49.20;;;;;;4975041;28;20189;-71
2021/12/21 01:05:34;;;;;;;2.88;2.42;;;21.80;49.40;;;;;;4975145;28;20277;-70
2021/12/21 01:08:03;;;;;;;2.45;2.20;;;21.80;49.30;;;;;;4992392;28;20239;-69
2021/12/21 01:13:13;;;;;;;2.85;2.30;;;21.80;49.50;;;;;;4991942;28;20177;-70
2021/12/21 01:18:18;;;;;;;2.75;2.30;;;21.80;49.50;;;;;;4995567;28;20193;-70
2021/12/21 01:21:01;;;;;;;3.22;2.28;;;21.80;49.50;;;;;;4995469;28;20227;-70
2021/12/21 01:26:27;;;;;;;3.15;2.72;;;21.80;49.20;;;;;;4996688;28;20204;-70
2021/12/21 01:29:11;;;;;;;2.40;2.20;;;21.80;48.90;;;;;;4995276;28;20204;-70
2021/12/21 01:32:05;;;;;;;2.67;2.10;;;21.80;49.20;;;;;;4995437;28;20208;-70
2021/12/21 01:40:01;;;;;;;2.92;2.22;;;21.90;49.40;;;;;;4995063;28;20184;-69
2021/12/21 01:50:44;;;;;;;2.47;2.20;;;21.80;49.20;;;;;;4955399;28;20221;-70
2021/12/21 01:53:10;;;;;;;2.85;2.10;;;21.80;49.30;;;;;;4970552;28;20200;-69
2021/12/21 01:55:36;;;;;;;2.50;2.30;;;21.80;49.20;;;;;;4995323;28;20208;-70
2021/12/21 01:58:02;;;;;;;2.30;2.10;;;21.80;49.20;;;;;;4995963;28;20192;-70
2021/12/21 02:00:29;;;;;;;2.17;1.98;;;21.80;49.10;;;;;;4978738;28;20205;-70
2021/12/21 02:02:55;;;;;;;2.60;2.22;;;21.80;49.00;;;;;;4978687;28;20195;-70
2021/12/21 02:05:21;;;;;;;2.38;2.10;;;21.80;48.90;;;;;;4994803;28;20216;-70
2021/12/21 02:07:46;;;;;;;2.38;2.00;;;21.80;49.60;;;;;;4978671;28;20239;-70
2021/12/21 02:10:12;;;;;;;2.92;2.30;;;21.80;48.80;;;;;;4994945;28;20282;-70
2021/12/21 02:12:38;;;;;;;2.35;2.15;;;21.80;48.80;;;;;;4978562;28;20264;-70
2021/12/21 02:15:05;;;;;;;2.58;1.83;;;21.80;48.80;;;;;;4978306;28;20628;-70
2021/12/21 02:20:23;;;;;;;2.00;1.80;;;21.80;48.90;;;;;;4995672;28;20205;-70
2021/12/21 02:22:58;;;;;;;2.10;1.90;;;21.80;48.80;;;;;;4995881;28;20221;-70
2021/12/21 02:30:38;;;;;;;2.53;2.00;;;21.80;49.10;;;;;;5007049;28;20212;-70
2021/12/21 02:33:04;;;;;;;2.17;1.80;;;21.80;49.00;;;;;;4978157;28;20215;-70
2021/12/21 02:35:30;;;;;;;2.08;1.90;;;21.80;49.00;;;;;;4994409;28;20192;-70
2021/12/21 02:37:56;;;;;;;2.10;1.90;;;21.80;48.90;;;;;;5010450;28;20263;-70
2021/12/21 02:40:22;;;;;;;2.65;2.05;;;21.80;48.80;;;;;;4995410;28;20331;-70
2021/12/21 02:42:48;;;;;;;3.38;1.95;;;21.80;48.80;;;;;;4994245;28;20193;-70
2021/12/21 02:45:14;;;;;;;2.17;1.98;;;21.80;48.80;;;;;;5010696;28;20199;-70
2021/12/21 02:47:40;;;;;;;2.78;1.98;;;21.80;48.70;;;;;;4977587;28;20184;-70
2021/12/21 02:50:07;;;;;;;1.98;1.80;;;21.80;48.60;;;;;;4994085;28;20282;-71
2021/12/21 02:52:33;;;;;;;2.00;1.75;;;21.80;48.50;;;;;;4995169;28;20181;-70
2021/12/21 02:55:01;;;;;;;1.88;1.77;;;21.70;48.50;;;;;;4977843;28;20196;-70
2021/12/21 02:57:27;;;;;;;1.83;1.67;;;21.80;48.40;;;;;;4993708;28;20187;-68
2021/12/21 02:59:53;;;;;;;2.10;1.90;;;21.80;48.60;;;;;;4995078;28;20181;-70
2021/12/21 03:02:19;;;;;;;1.90;1.70;;;21.80;48.70;;;;;;4994174;28;20195;-70
2021/12/21 03:04:46;;;;;;;2.63;2.05;;;21.70;48.60;;;;;;4977395;28;20185;-70
2021/12/21 03:09:54;;;;;;;2.03;1.63;;;21.80;48.70;;;;;;4994665;28;20189;-68
2021/12/21 03:14:47;;;;;;;2.20;1.80;;;21.80;48.80;;;;;;4977670;28;20188;-70
2021/12/21 03:17:13;;;;;;;2.10;1.70;;;21.80;48.90;;;;;;4994644;28;20193;-71
2021/12/21 03:19:39;;;;;;;2.20;1.50;;;21.80;48.90;;;;;;4993390;28;20275;-70
2021/12/21 03:22:08;;;;;;;2.10;1.77;;;21.80;48.70;;;;;;4993481;28;20303;-70
2021/12/21 03:24:35;;;;;;;2.17;1.73;;;21.80;48.70;;;;;;4977398;28;20252;-70
2021/12/21 03:27:03;;;;;;;1.88;1.77;;;21.80;48.60;;;;;;4960919;28;20216;-70
2021/12/21 03:29:30;;;;;;;1.85;1.70;;;21.80;48.60;;;;;;4977043;28;20184;-70
2021/12/21 03:31:56;;;;;;;1.88;1.77;;;21.80;48.50;;;;;;4984009;28;20269;-70
2021/12/21 03:34:23;;;;;;;1.92;1.83;;;21.80;48.40;;;;;;4996450;28;20203;-70
2021/12/21 03:36:49;;;;;;;1.80;1.70;;;21.80;48.40;;;;;;4996532;28;20264;-70
2021/12/21 03:39:24;;;;;;;2.15;1.90;;;21.70;48.20;;;;;;5013316;28;20195;-70
2021/12/21 03:41:56;;;;;;;1.77;1.50;;;21.70;48.30;;;;;;4999341;28;20273;-70
2021/12/21 03:44:24;;;;;;;2.22;1.73;;;21.80;48.40;;;;;;4978011;28;20303;-71
2021/12/21 03:46:53;;;;;;;2.05;1.95;;;21.80;48.50;;;;;;4993217;28;20217;-71
2021/12/21 03:52:15;;;;;;;1.60;1.50;;;21.80;48.60;;;;;;4976619;28;20208;-71
2021/12/21 03:54:49;;;;;;;1.83;1.60;;;21.80;49.20;;;;;;4992813;28;20185;-70
2021/12/21 03:57:15;;;;;;;1.80;1.70;;;21.80;48.60;;;;;;4994186;28;20176;-70
2021/12/21 03:59:43;;;;;;;1.73;1.50;;;21.80;48.40;;;;;;4976478;28;20220;-69
2021/12/21 04:02:11;;;;;;;1.80;1.70;;;21.80;48.40;;;;;;4992989;28;20227;-70
2021/12/21 04:04:42;;;;;;;1.80;1.70;;;21.70;48.30;;;;;;4960364;28;20635;-70
2021/12/21 04:07:09;;;;;;;1.90;1.75;;;21.70;48.10;;;;;;4960578;28;20205;-71
2021/12/21 04:09:35;;;;;;;2.45;2.00;;;21.80;48.10;;;;;;4992691;28;20180;-70
2021/12/21 04:12:01;;;;;;;1.80;1.70;;;21.80;48.00;;;;;;4988710;28;20220;-70
2021/12/21 04:14:32;;;;;;;2.17;1.70;;;21.70;47.90;;;;;;4976281;28;20180;-70
2021/12/21 04:16:58;;;;;;;1.73;1.63;;;21.70;47.90;;;;;;4993775;28;20177;-70
2021/12/21 04:19:25;;;;;;;1.58;1.48;;;21.70;48.20;;;;;;4992543;28;20192;-71
2021/12/21 04:24:17;;;;;;;1.83;1.52;;;21.70;48.20;;;;;;5031915;28;20344;-71
2021/12/21 04:26:43;;;;;;;1.70;1.60;;;21.80;48.40;;;;;;5014225;28;20715;-71
2021/12/21 04:29:09;;;;;;;1.48;1.33;;;21.70;48.40;;;;;;5031916;28;20286;-70
2021/12/21 04:31:35;;;;;;;1.73;1.63;;;21.80;48.40;;;;;;5030990;28;20257;-70
2021/12/21 04:34:01;;;;;;;1.65;1.45;;;21.70;48.30;;;;;;5032173;28;20176;-70
2021/12/21 04:36:27;;;;;;;2.10;1.60;;;21.70;48.30;;;;;;5014304;28;20288;-71
2021/12/21 04:38:54;;;;;;;1.73;1.60;;;21.70;48.30;;;;;;5013967;28;20191;-71
2021/12/21 04:41:26;;;;;;;1.60;1.50;;;21.70;48.30;;;;;;5031878;28;20191;-70
2021/12/21 04:43:54;;;;;;;1.77;1.67;;;21.80;48.40;;;;;;5031892;28;20182;-71
2021/12/21 04:46:20;;;;;;;1.60;1.50;;;21.80;48.30;;;;;;5030412;28;20227;-70
2021/12/21 04:48:47;;;;;;;1.60;1.50;;;21.70;48.10;;;;;;5013841;28;20183;-71
2021/12/21 04:51:13;;;;;;;1.55;1.45;;;21.80;48.20;;;;;;5013173;28;20183;-71
2021/12/21 04:53:40;;;;;;;1.45;1.33;;;21.70;48.00;;;;;;5031706;28;20225;-70
2021/12/21 04:56:06;;;;;;;2.03;1.58;;;21.70;47.90;;;;;;5031508;28;20183;-70
2021/12/21 04:58:33;;;;;;;2.10;1.77;;;21.70;47.90;;;;;;5030139;28;20187;-70
2021/12/21 05:00:59;;;;;;;1.83;1.60;;;21.80;47.90;;;;;;5013965;28;20191;-70
2021/12/21 05:03:25;;;;;;;2.20;1.70;;;21.70;47.90;;;;;;5013518;28;20187;-70
2021/12/21 05:05:52;;;;;;;1.70;1.60;;;21.70;47.80;;;;;;5014623;28;20278;-70
2021/12/21 05:08:27;;;;;;;2.17;1.50;;;21.70;47.90;;;;;;5030570;28;20187;-71
2021/12/21 05:10:58;;;;;;;1.73;1.40;;;21.70;47.90;;;;;;5014108;28;20193;-70
2021/12/21 05:13:28;;;;;;;2.25;1.55;;;21.70;48.10;;;;;;5031606;28;20183;-70
2021/12/21 05:15:55;;;;;;;1.52;1.35;;;21.70;48.00;;;;;;5024851;28;20184;-70
2021/12/21 05:18:21;;;;;;;1.92;1.50;;;21.70;48.10;;;;;;4977775;28;20279;-70
2021/12/21 05:20:48;;;;;;;1.85;1.67;;;21.70;48.00;;;;;;5011794;28;20226;-70
2021/12/21 05:23:15;;;;;;;1.60;1.50;;;21.80;48.00;;;;;;4994034;28;20217;-70
2021/12/21 05:25:41;;;;;;;1.73;1.60;;;21.80;48.00;;;;;;4994140;28;20215;-70
2021/12/21 05:28:10;;;;;;;1.48;1.38;;;21.80;48.00;;;;;;4993728;28;20282;-70
2021/12/21 05:30:37;;;;;;;1.70;1.60;;;21.80;48.10;;;;;;4994219;28;20184;-70
2021/12/21 05:33:05;;;;;;;2.28;1.70;;;21.80;48.00;;;;;;4994206;28;20638;-71
2021/12/21 05:35:33;;;;;;;1.73;1.45;;;21.90;48.10;;;;;;4994407;28;20219;-70
2021/12/21 05:38:03;;;;;;;2.05;1.63;;;21.80;48.60;;;;;;4979129;28;20211;-71
2021/12/21 05:40:34;;;;;;;1.40;1.30;;;21.90;48.00;;;;;;4994118;28;20271;-70
2021/12/21 05:43:01;;;;;;;1.75;1.55;;;21.80;47.90;;;;;;4994074;28;20263;-70
2021/12/21 05:45:27;;;;;;;1.50;1.40;;;21.80;48.00;;;;;;5011279;28;20218;-70
2021/12/21 05:47:53;;;;;;;2.25;1.42;;;21.80;47.90;;;;;;5011032;28;20203;-70
2021/12/21 05:50:20;;;;;;;2.47;1.35;;;21.80;47.90;;;;;;5010454;28;20196;-69
2021/12/21 05:52:47;;;;;;;1.48;1.38;;;21.80;48.00;;;;;;4994063;28;20188;-69
2021/12/21 05:55:15;;;;;;;1.40;1.30;;;21.70;47.90;;;;;;4994267;28;20769;-70
2021/12/21 05:57:41;;;;;;;1.58;1.48;;;21.70;47.90;;;;;;4993597;28;20208;-70
2021/12/21 06:00:13;;;;;;;1.52;1.42;;;21.80;48.10;;;;;;4977730;28;20191;-70
2021/12/21 06:02:40;;;;;;;4.43;1.50;;;21.80;48.00;;;;;;4996902;28;20288;-70
2021/12/21 06:05:07;;;;;;;2.47;1.85;;;21.80;48.00;;;;;;4998395;28;20184;-69
2021/12/21 06:07:34;;;;;;;1.38;1.20;;;21.80;47.90;;;;;;5034039;28;20696;-69
2021/12/21 06:10:10;;;;;;;2.47;1.52;;;21.80;48.00;;;;;;5017270;28;20179;-69
2021/12/21 06:26:04;;;;;;;1.40;1.30;;;21.70;48.00;;;;;;5034236;28;20230;-70
2021/12/21 06:28:31;;;;;;;1.67;1.30;;;21.70;48.20;;;;;;5032663;28;20592;-69
2021/12/21 06:30:57;;;;;;;1.55;1.45;;;21.70;48.40;;;;;;5032796;28;20187;-69
2021/12/21 06:33:23;;;;;;;1.60;1.40;;;21.70;48.30;;;;;;5000292;28;20540;-69
2021/12/21 06:35:50;;;;;;;1.48;1.38;;;21.80;48.30;;;;;;5000219;28;20294;-69
2021/12/21 06:38:16;;;;;;;1.85;1.67;;;21.70;48.20;;;;;;5015828;28;20242;-69
2021/12/21 06:40:42;;;;;;;1.75;1.33;;;21.80;48.30;;;;;;5032835;28;20245;-69
2021/12/21 06:43:12;;;;;;;1.77;1.40;;;21.80;48.30;;;;;;4999938;28;20191;-69
2021/12/21 06:53:42;;;;;;;1.40;1.30;;;21.70;47.80;;;;;;5032652;28;20209;-69
2021/12/21 06:56:09;;;;;;;1.52;1.42;;;21.70;48.10;;;;;;5015924;28;20262;-69
2021/12/21 06:58:36;;;;;;;2.70;1.90;;;21.70;48.10;;;;;;5015856;28;20527;-69
2021/12/21 07:01:05;;;;;;;1.48;1.38;;;21.70;48.00;;;;;;5032284;28;20652;-69
2021/12/21 07:03:31;;;;;;;1.50;1.40;;;21.70;48.20;;;;;;5016054;28;20611;-69
2021/12/21 07:06:05;;;;;;;1.42;1.33;;;21.70;48.00;;;;;;5033402;28;20210;-69
2021/12/21 07:08:36;;;;;;;2.67;1.30;;;21.70;48.00;;;;;;4999440;28;20206;-69
2021/12/21 07:19:07;;;;;;;3.15;1.45;;;21.70;47.80;;;;;;5032044;28;20186;-69
2021/12/21 07:21:33;;;;;;;1.38;1.27;;;21.70;47.80;;;;;;5015598;28;20187;-69
2021/12/21 07:23:58;;;;;;;1.75;1.50;;;21.60;47.80;;;;;;5015264;28;20569;-69
2021/12/21 07:26:26;;;;;;;1.48;1.38;;;21.60;47.80;;;;;;5028632;28;20211;-69
2021/12/21 07:28:52;;;;;;;1.73;1.60;;;21.70;47.90;;;;;;4997833;28;20194;-69
2021/12/21 07:31:18;;;;;;;1.65;1.55;;;21.70;47.90;;;;;;4999336;28;20218;-70
2021/12/21 07:33:44;;;;;;;1.52;1.42;;;21.70;47.90;;;;;;5051768;28;20202;-69
2021/12/21 07:36:10;;;;;;;1.60;1.50;;;21.70;47.90;;;;;;5026841;28;20175;-69
2021/12/21 07:38:36;;;;;;;1.20;1.10;;;21.70;47.90;;;;;;4995540;28;20192;-69
2021/12/21 07:41:03;;;;;;;1.88;1.45;;;21.70;47.90;;;;;;4995688;28;20192;-69
2021/12/21 07:43:30;;;;;;;1.58;1.48;;;21.70;47.80;;;;;;4979690;28;20191;-69
2021/12/21 07:45:56;;;;;;;2.15;1.67;;;21.70;47.80;;;;;;4995487;28;20207;-69
2021/12/21 07:48:22;;;;;;;2.72;1.60;;;21.70;47.90;;;;;;5011377;28;20183;-70
2021/12/21 07:50:51;;;;;;;2.00;1.80;;;21.70;47.90;;;;;;5015075;28;20219;-69
2021/12/21 07:53:19;;;;;;;2.47;2.08;;;21.70;47.90;;;;;;5031747;28;20229;-69
2021/12/21 07:55:46;;;;;;;2.08;1.90;;;21.70;47.80;;;;;;5031453;28;20645;-69
2021/12/21 07:58:12;;;;;;;2.05;1.88;;;21.70;47.80;;;;;;5027530;28;20226;-69
2021/12/21 08:00:39;;;;;;;2.25;1.80;;;21.70;47.70;;;;;;5011758;28;20710;-69
2021/12/21 08:03:05;;;;;;;3.40;2.58;;;21.70;47.70;;;;;;4995294;28;20195;-69
2021/12/21 08:05:34;;;;;;;2.33;2.03;;;21.70;47.60;;;;;;4995225;28;20261;-68
2021/12/21 08:08:12;;;;;;;2.10;1.90;;;21.70;47.60;;;;;;5011082;28;20299;-69
2021/12/21 08:13:28;;;;;;;1.70;1.60;;;21.70;47.70;;;;;;4976441;28;20192;-69
2021/12/21 08:15:53;;;;;;;2.47;2.17;;;21.70;47.90;;;;;;5011352;28;20296;-68
2021/12/21 08:18:19;;;;;;;2.25;1.92;;;21.70;47.90;;;;;;4978725;28;20192;-69
2021/12/21 08:20:45;;;;;;;2.17;1.88;;;21.70;47.90;;;;;;4994497;28;20282;-69
2021/12/21 08:23:11;;;;;;;2.00;1.80;;;21.70;47.80;;;;;;4994949;28;20195;-68
2021/12/21 08:25:37;;;;;;;3.10;1.90;;;21.70;47.80;;;;;;4994869;28;20227;-69
2021/12/21 08:28:06;;;;;;;1.95;1.77;;;21.70;47.80;;;;;;4994479;28;20212;-69
2021/12/21 08:30:32;;;;;;;2.28;2.08;;;21.70;47.80;;;;;;5011264;28;20279;-68
2021/12/21 08:32:59;;;;;;;2.35;2.10;;;21.70;47.70;;;;;;5004958;28;20191;-69
2021/12/21 08:35:26;;;;;;;3.05;2.30;;;21.70;47.70;;;;;;5030948;28;20242;-69
2021/12/21 08:37:59;;;;;;;2.22;2.00;;;21.70;47.50;;;;;;5013804;28;20234;-69
2021/12/21 08:40:25;;;;;;;2.33;2.13;;;21.70;47.60;;;;;;5014490;28;20187;-68
2021/12/21 08:42:52;;;;;;;2.80;2.25;;;21.70;47.40;;;;;;5014378;28;20195;-69
2021/12/21 08:45:19;;;;;;;2.40;2.20;;;21.70;47.40;;;;;;4997828;28;20225;-69
2021/12/21 08:47:45;;;;;;;2.42;2.15;;;21.70;47.40;;;;;;5013729;28;20225;-69
2021/12/21 08:50:14;;;;;;;2.47;1.95;;;21.70;47.40;;;;;;5014283;28;20219;-69
2021/12/21 08:52:40;;;;;;;2.10;1.88;;;21.70;47.40;;;;;;5014223;28;20191;-68
2021/12/21 08:55:09;;;;;;;2.10;1.90;;;21.70;47.40;;;;;;4997677;28;20187;-68
2021/12/21 08:57:36;;;;;;;2.05;1.95;;;21.70;47.50;;;;;;5013677;28;20242;-68
2021/12/21 09:00:07;;;;;;;1.90;1.80;;;21.70;47.60;;;;;;5030245;28;20183;-68
2021/12/21 09:02:35;;;;;;;1.88;1.77;;;21.70;47.60;;;;;;5013816;28;20238;-68
2021/12/21 09:05:11;;;;;;;1.70;1.55;;;21.70;47.60;;;;;;5030789;28;20195;-69
2021/12/21 09:07:45;;;;;;;2.15;1.70;;;21.70;47.60;;;;;;5013712;28;20221;-70
2021/12/21 09:10:14;;;;;;;2.58;1.70;;;21.70;47.60;;;;;;5030654;28;20287;-69
2021/12/21 09:12:40;;;;;;;2.15;1.90;;;21.70;47.50;;;;;;5013921;28;20183;-70
2021/12/21 09:15:09;;;;;;;2.40;2.20;;;21.70;47.40;;;;;;5014034;28;20183;-69
2021/12/21 09:17:35;;;;;;;2.10;1.90;;;21.70;47.30;;;;;;5011142;28;20215;-70
2021/12/21 09:20:03;;;;;;;2.42;2.20;;;21.70;47.40;;;;;;4997785;28;20202;-71
2021/12/21 09:22:29;;;;;;;2.38;2.10;;;21.70;47.30;;;;;;4997162;28;20249;-70
2021/12/21 09:24:57;;;;;;;2.35;2.00;;;21.70;47.20;;;;;;5009016;28;20196;-69
2021/12/21 09:27:23;;;;;;;2.33;2.08;;;21.70;47.10;;;;;;5027047;28;20220;-69
2021/12/21 09:29:49;;;;;;;2.20;2.00;;;21.70;47.00;;;;;;5027209;28;20249;-69
2021/12/21 09:32:18;;;;;;;1.80;1.70;;;21.70;47.10;;;;;;5027132;28;20188;-69
2021/12/21 09:34:45;;;;;;;2.85;1.88;;;21.70;47.20;;;;;;5013746;28;20191;-70
2021/12/21 09:37:18;;;;;;;2.10;1.90;;;21.70;47.40;;;;;;5015929;28;20199;-71
2021/12/21 09:39:49;;;;;;;2.00;1.90;;;21.80;47.40;;;;;;5000954;28;20197;-71
2021/12/21 09:42:21;;;;;;;2.25;1.90;;;21.80;47.40;;;;;;5017633;28;20192;-71
2021/12/21 09:44:48;;;;;;;2.42;1.92;;;21.90;47.50;;;;;;5000122;28;20699;-72
2021/12/21 09:47:16;;;;;;;2.00;1.80;;;21.80;47.50;;;;;;5017643;28;20211;-72
2021/12/21 09:49:44;;;;;;;1.75;1.60;;;21.90;47.70;;;;;;5030085;28;20195;-71
2021/12/21 09:52:18;;;;;;;1.92;1.80;;;21.90;47.80;;;;;;4997626;28;20661;-72
2021/12/21 09:54:45;;;;;;;2.25;2.05;;;21.90;47.90;;;;;;5014354;28;20168;-71
2021/12/21 09:57:15;;;;;;;2.53;2.08;;;21.90;48.00;;;;;;4997575;28;20610;-71
2021/12/21 09:59:46;;;;;;;1.95;1.85;;;22.00;48.10;;;;;;5013788;28;20594;-71
2021/12/21 10:02:13;;;;;;;1.90;1.80;;;22.00;48.10;;;;;;5013866;28;20185;-72
2021/12/21 10:05:03;;;;;;;2.40;2.20;;;22.00;48.10;;;;;;4997391;28;20242;-71
2021/12/21 10:07:29;;;;;;;3.83;1.80;;;21.90;48.20;;;;;;5014508;28;20244;-71
2021/12/21 10:10:18;;;;;;;1.90;1.77;;;22.00;48.20;;;;;;5015412;28;20164;-71
2021/12/21 10:12:47;;;;;;;2.05;1.88;;;22.00;48.50;;;;;;5015214;28;20184;-71
2021/12/21 10:15:22;;;;;;;1.98;1.88;;;22.00;48.50;;;;;;4997647;28;20184;-71
2021/12/21 10:18:00;;;;;;;3.92;1.73;;;22.00;48.80;;;;;;5013076;28;20262;-72
2021/12/21 10:23:25;;;;;;;3.15;1.90;;;21.90;48.60;;;;;;4993708;28;20271;-71
2021/12/21 10:26:11;;;;;;;2.33;2.05;;;21.90;48.40;;;;;;4978239;28;20670;-71
2021/12/21 10:28:47;;;;;;;3.05;2.17;;;21.90;48.30;;;;;;4975642;28;20268;-72
2021/12/21 10:31:39;;;;;;;3.22;2.22;;;21.90;48.30;;;;;;4940977;28;20186;-71
2021/12/21 10:34:13;;;;;;;2.70;2.10;;;22.00;48.30;;;;;;4942262;29;20187;-71
2021/12/21 10:36:42;;;;;;;4.38;2.08;;;22.00;48.10;;;;;;4923289;29;20210;-72
2021/12/21 10:39:08;;;;;;;2.30;2.00;;;22.00;48.10;;;;;;4938910;29;20197;-71
2021/12/21 10:41:42;;;;;;;2.13;1.92;;;22.00;48.00;;;;;;4938919;29;20186;-71
2021/12/21 10:44:15;;;;;;;2.15;1.98;;;22.00;47.90;;;;;;4938436;29;20190;-71
2021/12/21 10:46:48;;;;;;;3.28;2.00;;;21.90;47.80;;;;;;4923211;29;20230;-72
2021/12/21 10:49:18;;;;;;;3.08;2.22;;;21.90;47.60;;;;;;4921802;29;20269;-70
2021/12/21 10:52:07;;;;;;;2.83;2.45;;;21.90;47.70;;;;;;4932677;28;20193;-71
2021/12/21 10:54:38;;;;;;;3.92;1.98;;;21.90;47.70;;;;;;4973452;28;20201;-71
2021/12/21 10:57:17;;;;;;;2.20;2.00;;;22.00;47.70;;;;;;4941689;28;20218;-71
2021/12/21 10:59:46;;;;;;;3.08;1.95;;;22.00;47.70;;;;;;4957641;28;20201;-71
2021/12/21 11:02:16;;;;;;;2.13;1.90;;;22.00;47.60;;;;;;4941051;28;20193;-71
2021/12/21 11:04:48;;;;;;;2.88;2.33;;;22.00;47.60;;;;;;4956280;28;20194;-72
2021/12/21 11:10:15;;;;;;;2.75;2.35;;;22.00;47.50;;;;;;4956845;28;20261;-69
2021/12/21 11:13:10;;;;;;;3.05;2.47;;;22.00;47.30;;;;;;4973610;28;20235;-68
2021/12/21 11:15:39;;;;;;;2.63;2.42;;;22.00;47.30;;;;;;4957218;28;20192;-72
2021/12/21 11:18:13;;;;;;;2.15;1.90;;;22.00;47.20;;;;;;4941332;28;20224;-72
2021/12/21 11:20:43;;;;;;;2.63;2.40;;;22.00;47.20;;;;;;4957430;28;20192;-71
2021/12/21 11:23:15;;;;;;;2.63;2.28;;;22.00;47.20;;;;;;4960239;28;20178;-72
2021/12/21 11:25:44;;;;;;;2.75;2.50;;;22.00;47.20;;;;;;4970819;28;20522;-72
2021/12/21 11:28:17;;;;;;;3.08;2.17;;;22.00;47.10;;;;;;4940416;28;20201;-71
2021/12/21 11:30:44;;;;;;;2.95;2.53;;;22.00;47.00;;;;;;4956251;28;20182;-72
2021/12/21 11:33:11;;;;;;;2.50;2.30;;;22.00;47.10;;;;;;4954169;28;20239;-71
2021/12/21 11:38:10;;;;;;;2.50;2.30;;;22.00;47.00;;;;;;4956561;28;20293;-71
2021/12/21 11:40:43;;;;;;;2.90;2.35;;;22.00;47.00;;;;;;4957244;28;20197;-71
2021/12/21 11:43:20;;;;;;;2.72;2.47;;;22.00;47.00;;;;;;4941059;28;20607;-71
2021/12/21 11:46:06;;;;;;;2.60;2.40;;;22.00;47.00;;;;;;4956632;28;20637;-71
2021/12/21 11:49:02;;;;;;;2.58;2.38;;;22.00;46.90;;;;;;4972992;28;20824;-71
2021/12/21 11:51:28;;;;;;;3.10;2.40;;;22.00;46.90;;;;;;4973275;28;20182;-71
2021/12/21 11:53:55;;;;;;;2.55;2.15;;;22.00;46.80;;;;;;4989195;28;20255;-71
2021/12/21 11:56:26;;;;;;;2.70;2.35;;;22.00;46.80;;;;;;4988738;28;20201;-71
2021/12/21 11:58:56;;;;;;;2.65;2.45;;;22.00;46.80;;;;;;4939999;28;20221;-73
2021/12/21 12:01:28;;;;;;;2.60;2.40;;;22.00;46.80;;;;;;4956790;28;20182;-72
2021/12/21 12:04:08;;;;;;;2.45;2.25;;;22.00;46.70;;;;;;4940866;28;20186;-71
2021/12/21 12:06:53;;;;;;;3.13;2.00;;;22.00;46.70;;;;;;4956582;28;20243;-71
2021/12/21 12:09:33;;;;;;;2.60;2.30;;;22.00;46.70;;;;;;4956190;28;20280;-72
2021/12/21 12:12:16;;;;;;;2.55;2.03;;;22.00;46.70;;;;;;4988723;28;20200;-72
2021/12/21 12:14:45;;;;;;;2.47;2.22;;;22.00;46.70;;;;;;4956551;28;20617;-72
2021/12/21 12:17:22;;;;;;;3.17;2.50;;;22.00;46.70;;;;;;4956345;28;20217;-71
2021/12/21 12:19:55;;;;;;;2.40;2.20;;;22.00;46.60;;;;;;4940193;28;20193;-71
2021/12/21 12:22:40;;;;;;;2.83;2.38;;;22.00;46.60;;;;;;4956383;28;20272;-71
2021/12/21 12:25:20;;;;;;;2.63;2.15;;;22.00;46.60;;;;;;4956211;28;20201;-71
2021/12/21 12:27:50;;;;;;;2.83;2.47;;;22.00;46.50;;;;;;4939678;28;20308;-72
2021/12/21 12:30:23;;;;;;;2.47;2.28;;;22.00;46.50;;;;;;4956270;28;20217;-71
2021/12/21 12:32:55;;;;;;;2.50;2.30;;;22.00;46.50;;;;;;4956448;28;20624;-71
2021/12/21 12:35:30;;;;;;;2.53;2.13;;;22.00;46.50;;;;;;4988333;28;20224;-71
2021/12/21 12:38:15;;;;;;;2.58;2.20;;;22.00;46.50;;;;;;4940157;28;20208;-71
2021/12/21 12:40:52;;;;;;;2.30;2.10;;;22.00;46.50;;;;;;4940298;28;20610;-71
2021/12/21 12:43:29;;;;;;;2.97;2.33;;;22.00;46.50;;;;;;4940534;28;20256;-72
2021/12/21 12:46:06;;;;;;;2.80;1.98;;;22.00;46.40;;;;;;4956290;28;20279;-71
2021/12/21 12:48:47;;;;;;;2.47;2.25;;;22.00;46.50;;;;;;4939856;28;20185;-72
2021/12/21 12:51:28;;;;;;;2.35;2.13;;;22.00;46.60;;;;;;4956193;28;20185;-71
2021/12/21 12:53:55;;;;;;;2.70;2.13;;;22.00;46.70;;;;;;4940189;28;20190;-71
2021/12/21 12:56:21;;;;;;;2.35;1.98;;;22.00;46.50;;;;;;4955983;28;20241;-72
2021/12/21 12:58:58;;;;;;;2.28;2.08;;;22.00;46.70;;;;;;4955733;28;20186;-72
2021/12/21 13:01:27;;;;;;;2.28;2.05;;;22.00;47.60;;;;;;4956290;28;20193;-72
2021/12/21 13:03:58;;;;;;;2.10;1.95;;;22.10;46.80;;;;;;4939976;28;20193;-73
2021/12/21 13:06:29;;;;;;;2.92;2.38;;;22.10;46.50;;;;;;4955669;28;20336;-72
2021/12/21 13:08:55;;;;;;;2.95;2.15;;;22.00;47.80;;;;;;4955599;28;20180;-72
2021/12/21 13:11:29;;;;;;;2.35;2.13;;;22.00;46.20;;;;;;4970455;28;20185;-72
2021/12/21 13:13:57;;;;;;;2.47;2.28;;;22.00;46.30;;;;;;4988292;28;20271;-72
2021/12/21 13:16:33;;;;;;;2.83;2.17;;;22.00;46.20;;;;;;4939407;28;20690;-72
2021/12/21 13:19:05;;;;;;;2.47;1.88;;;22.00;46.20;;;;;;4972627;28;20189;-72
2021/12/21 13:21:47;;;;;;;2.30;2.10;;;22.00;46.30;;;;;;4963009;28;20228;-72
2021/12/21 13:24:20;;;;;;;2.88;2.28;;;22.00;46.20;;;;;;4971849;28;20186;-72
2021/12/21 13:26:53;;;;;;;2.92;2.63;;;22.00;46.20;;;;;;4971741;28;20698;-72
2021/12/21 13:29:26;;;;;;;2.72;2.53;;;22.10;46.20;;;;;;4971169;28;20193;-72
2021/12/21 13:31:56;;;;;;;2.80;2.60;;;22.10;46.20;;;;;;4972872;28;20662;-72
2021/12/21 13:34:26;;;;;;;2.85;2.58;;;22.00;46.20;;;;;;4940153;28;20667;-72
2021/12/21 13:36:56;;;;;;;2.40;2.20;;;22.00;46.10;;;;;;4939815;28;20308;-72
2021/12/21 13:39:27;;;;;;;2.95;2.65;;;22.10;46.20;;;;;;4971546;28;20193;-72
2021/12/21 13:41:55;;;;;;;3.17;2.75;;;22.00;46.00;;;;;;4955616;28;20212;-72
2021/12/21 13:44:35;;;;;;;2.55;2.35;;;22.10;46.20;;;;;;4939528;28;20186;-72
2021/12/21 13:47:13;;;;;;;2.88;2.67;;;22.00;46.00;;;;;;4955463;28;20706;-72
2021/12/21 13:49:56;;;;;;;3.05;2.33;;;22.00;46.20;;;;;;4955364;28;20186;-72
2021/12/21 13:52:24;;;;;;;2.70;2.50;;;22.00;46.10;;;;;;4939467;28;20185;-72
2021/12/21 13:54:50;;;;;;;2.65;2.45;;;22.00;46.00;;;;;;4955301;28;20556;-72
2021/12/21 13:57:18;;;;;;;2.53;2.33;;;22.10;46.20;;;;;;4971368;28;20312;-72
2021/12/21 13:59:49;;;;;;;2.95;2.53;;;22.10;46.10;;;;;;4955519;28;20269;-72
2021/12/21 14:02:36;;;;;;;2.80;2.60;;;22.10;46.10;;;;;;4939557;28;20182;-72
2021/12/21 14:05:09;;;;;;;2.72;2.47;;;22.10;46.10;;;;;;4988244;28;20261;-72
2021/12/21 14:07:41;;;;;;;2.97;2.72;;;22.10;46.00;;;;;;4955101;28;20248;-72
2021/12/21 14:10:46;;;;;;;2.97;2.67;;;22.00;45.90;;;;;;4939527;28;20248;-72
2021/12/21 14:13:14;;;;;;;3.15;2.60;;;22.10;46.60;;;;;;4953959;28;20583;-72
2021/12/21 14:15:44;;;;;;;2.50;2.22;;;22.00;46.00;;;;;;4939729;28;20276;-73
2021/12/21 14:18:18;;;;;;;2.72;2.53;;;22.10;46.10;;;;;;4970532;28;20214;-72
2021/12/21 14:20:49;;;;;;;3.17;2.88;;;22.10;46.10;;;;;;4981166;28;20181;-72
2021/12/21 14:23:19;;;;;;;3.08;2.42;;;22.10;46.30;;;;;;4956759;28;20244;-72
2021/12/21 14:25:46;;;;;;;3.05;2.80;;;22.10;46.00;;;;;;4974656;28;20213;-72
2021/12/21 14:28:13;;;;;;;3.53;2.85;;;22.10;46.30;;;;;;4974165;28;20211;-72
2021/12/21 14:30:40;;;;;;;3.22;2.92;;;22.10;45.90;;;;;;4991011;28;20233;-72